• Join FlightAware (Why Join?)
  • Login
  • US Flag 
12:52PM EDT


 

Airport Tracker/Info


-or-


 

Live Flight TrackerFlight Track Log ✈ JBU59 ✈ 09-Jun-2013 ✈ KBTV - KJFK

Flight Track Log - Related Links

Times and Time Zones

All times are in EDT time to prevent confusion due to time zone crossing. See the JBU59 flight status page for this flight to view local times or setup timezone preferences in your user account.

Time Position Orientation Groundspeed Altitude Reporting Facility
EDT Latitude Longitude Course Direction KTS MPH feet Rate Location/Type
06:06PM 44.4131 -73.2103 193° South 236 272 5,800  Level Boston Center
06:07PM 44.3339 -73.1772 163° South 269 310 9,300 2,820 Climbing Boston Center
06:08PM 44.2506 -73.1908 187° South 297 342 11,500 2,520 Climbing Boston Center
06:09PM 44.1769 -73.2767 220° Southwest 311 358 14,400 2,880 Climbing Boston Center
06:10PM 44.0174 -73.3165 194° South  Level FlightAware Approximate
06:10PM 44.0831 -73.3217 199° South 341 392 17,300  Level Boston Center
06:11PM 43.9417 -73.3417 193° South  Level FlightAware Approximate
06:11PM 43.9847 -73.3461 190° South 375 432 19,800  Level Boston Center
06:12PM 43.8783 -73.3703 189° South 392 451 22,200 2,100 Climbing Boston Center
06:13PM 43.7656 -73.3944 189° South 398 458 24,000 1,800 Climbing Boston Center
06:14PM 43.6531 -73.4128 187° South 411 473 25,800 1,560 Climbing Boston Center
06:15PM 43.5589 -73.4342 189° South 416 479 27,200 1,080 Climbing Boston Center
06:16PM 43.4169 -73.4633 188° South 426 490 28,000 360 Climbing Boston Center
06:17PM 43.2981 -73.4869 188° South 431 496 28,000  Level Boston Center
06:18PM 43.1789 -73.5164 190° South 431 496 28,000  Level Boston Center
06:19PM 43.0453 -73.5453 189° South 436 502 28,000  Level Boston Center
06:20PM 42.9222 -73.5686 188° South 448 516 28,000  Level Boston Center
06:21PM 42.8072 -73.5975 190° South 435 501 28,000  Level Boston Center
06:22PM 42.6861 -73.6208 188° South 435 501 28,000  Level Boston Center
06:23PM 42.5650 -73.6467 189° South 435 501 28,000  Level Boston Center
06:24PM 42.4417 -73.6722 189° South 445 512 28,000  Level Boston Center
06:25PM 42.3206 -73.6897 186° South 450 518 28,000  Level Boston Center
06:26PM 42.1994 -73.7208 191° South 445 512 28,000  Level Boston Center
06:27PM 42.0825 -73.7436 188° South 445 512 28,000  Level Boston Center
06:28PM 41.9633 -73.7664 188° South 445 512 28,000 -480 Level Boston Center
06:30PM 41.6986 -73.8411 192° South 422 486 26,500 -1,140 Descending New York Center
06:31PM 41.6008 -73.9114 208° Southwest 409 471 24,400 -2,040 Descending New York Center
06:32PM 41.5181 -73.9711 208° Southwest 396 456 22,500 -1,980 Descending New York Center
06:33PM 41.4269 -74.0333 207° Southwest 386 444 20,500 -1,320 Descending New York Center
06:34PM 41.3481 -74.0986 212° Southwest 368 423 19,900 -300 Descending New York Center
06:35PM 41.2733 -74.1639 213° Southwest 345 397 19,900  Level New York Center
06:36PM 41.1944 -74.2206 208° Southwest 335 386 19,900  Level New York Center
06:37PM 41.1217 -74.2856 214° Southwest 330 380 19,900 -480 Level New York Center
06:38PM 41.0217 -74.2914 183° South 312 359 19,000 -720 Descending New York Center
06:38PM 40.9833 -74.2667 154° Southeast 350 403 19,000  Level New York TRACON
06:39PM 40.9333 -74.1500 120° Southeast 370 426 19,000 -300 Level New York TRACON
06:40PM 40.8833 -74.0333 120° Southeast 367 422 18,400 -1,200 Descending New York TRACON
06:41PM 40.8333 -73.9167 119° Southeast 360 414 16,700 -1,800 Descending New York TRACON
06:42PM 40.7833 -73.8167 123° Southeast 347 399 14,900 -1,800 Descending New York TRACON
06:43PM 40.7500 -73.7167 114° Southeast 353 406 13,300 -1,500 Descending New York TRACON
06:44PM 40.6667 -73.6500 149° Southeast 339 390 12,100 -1,500 Descending New York TRACON
06:45PM 40.5833 -73.6167 163° South 316 364 10,400 -1,800 Descending New York TRACON
06:46PM 40.5000 -73.6333 189° South 290 334 8,400 -1,680 Descending New York TRACON
06:47PM 40.4500 -73.6833 217° Southwest 270 311 7,100 -1,500 Descending New York TRACON
06:48PM 40.4167 -73.7667 242° Southwest 257 296 5,600 -960 Descending New York TRACON
06:49PM 40.4000 -73.8333 252° West 206 237 5,200 -900 Descending New York TRACON
06:50PM 40.4167 -73.9000 288° West 181 208 3,900 -1,140 Descending New York TRACON
06:51PM 40.4333 -73.9500 294° West 190 219 3,000 -480 Descending New York TRACON
06:52PM 40.4833 -73.9667 346° North 190 219 3,000 -120 Level New York TRACON
06:53PM 40.5333 -73.9500 14° North 195 224 2,800 -780 Descending New York TRACON
06:54PM 40.5833 -73.9167 27° Northeast 199 229 1,500 -780 Descending New York TRACON
06:55PM 40.6333 -73.8833 27° Northeast 175 201 1,300 -300 Descending New York TRACON
06:56PM 40.6667 -73.8500 37° Northeast 149 171 900 -480 Descending New York TRACON
06:57PM 40.6667 -73.8000 90° East 146 168 400 -540 Descending New York TRACON
06:59PM 40.6398 -73.7789 118° Southeast  Level Estimated